sensor_id;sensor_type;location;lat;lon;timestamp;P1;durP1;ratioP1;P2;durP2;ratioP2
41466;SDS011;27205;53.690;19.948;2022-07-23T00:02:06;7.70;;;7.20;;
41466;SDS011;27205;53.690;19.948;2022-07-23T00:07:10;8.10;;;7.60;;
41466;SDS011;27205;53.690;19.948;2022-07-23T00:12:13;9.40;;;8.70;;
41466;SDS011;27205;53.690;19.948;2022-07-23T00:17:17;8.10;;;7.60;;
41466;SDS011;27205;53.690;19.948;2022-07-23T00:22:20;9.10;;;8.50;;
41466;SDS011;27205;53.690;19.948;2022-07-23T00:32:27;9.40;;;8.80;;
41466;SDS011;27205;53.690;19.948;2022-07-23T00:37:50;7.30;;;6.80;;
41466;SDS011;27205;53.690;19.948;2022-07-23T00:42:54;9.00;;;8.30;;
41466;SDS011;27205;53.690;19.948;2022-07-23T00:47:58;9.40;;;8.20;;
41466;SDS011;27205;53.690;19.948;2022-07-23T00:53:01;9.20;;;8.50;;
41466;SDS011;27205;53.690;19.948;2022-07-23T00:58:05;8.40;;;7.70;;
41466;SDS011;27205;53.690;19.948;2022-07-23T01:03:09;8.10;;;7.40;;
41466;SDS011;27205;53.690;19.948;2022-07-23T01:08:12;8.30;;;7.80;;
41466;SDS011;27205;53.690;19.948;2022-07-23T01:13:16;9.40;;;8.70;;
41466;SDS011;27205;53.690;19.948;2022-07-23T01:18:19;6.80;;;6.40;;
41466;SDS011;27205;53.690;19.948;2022-07-23T01:23:22;8.10;;;7.40;;
41466;SDS011;27205;53.690;19.948;2022-07-23T01:28:26;6.60;;;6.20;;
41466;SDS011;27205;53.690;19.948;2022-07-23T01:33:29;8.60;;;8.00;;
41466;SDS011;27205;53.690;19.948;2022-07-23T01:38:33;8.80;;;8.20;;
41466;SDS011;27205;53.690;19.948;2022-07-23T01:43:36;7.40;;;6.80;;
41466;SDS011;27205;53.690;19.948;2022-07-23T01:48:39;9.10;;;8.40;;
41466;SDS011;27205;53.690;19.948;2022-07-23T01:58:47;9.60;;;8.80;;
41466;SDS011;27205;53.690;19.948;2022-07-23T02:03:51;8.60;;;7.80;;
41466;SDS011;27205;53.690;19.948;2022-07-23T02:08:55;8.70;;;8.10;;
41466;SDS011;27205;53.690;19.948;2022-07-23T02:13:59;10.00;;;9.20;;
41466;SDS011;27205;53.690;19.948;2022-07-23T02:19:02;10.10;;;9.40;;
41466;SDS011;27205;53.690;19.948;2022-07-23T02:24:07;8.40;;;7.80;;
41466;SDS011;27205;53.690;19.948;2022-07-23T02:29:11;9.00;;;8.30;;
41466;SDS011;27205;53.690;19.948;2022-07-23T02:34:14;9.40;;;8.70;;
41466;SDS011;27205;53.690;19.948;2022-07-23T02:39:17;8.80;;;8.00;;
41466;SDS011;27205;53.690;19.948;2022-07-23T02:44:21;9.50;;;8.80;;
41466;SDS011;27205;53.690;19.948;2022-07-23T02:49:24;8.50;;;7.70;;
41466;SDS011;27205;53.690;19.948;2022-07-23T02:54:27;8.50;;;7.80;;
41466;SDS011;27205;53.690;19.948;2022-07-23T02:59:31;8.40;;;7.70;;
41466;SDS011;27205;53.690;19.948;2022-07-23T03:04:34;7.70;;;7.20;;
41466;SDS011;27205;53.690;19.948;2022-07-23T03:09:37;8.50;;;7.80;;
41466;SDS011;27205;53.690;19.948;2022-07-23T03:14:41;7.90;;;7.20;;
41466;SDS011;27205;53.690;19.948;2022-07-23T03:24:48;8.50;;;7.80;;
41466;SDS011;27205;53.690;19.948;2022-07-23T03:29:57;7.40;;;6.90;;
41466;SDS011;27205;53.690;19.948;2022-07-23T03:35:02;8.00;;;7.30;;
41466;SDS011;27205;53.690;19.948;2022-07-23T03:40:08;7.40;;;6.80;;
41466;SDS011;27205;53.690;19.948;2022-07-23T03:45:12;8.30;;;7.70;;
41466;SDS011;27205;53.690;19.948;2022-07-23T03:50:16;7.60;;;6.90;;
41466;SDS011;27205;53.690;19.948;2022-07-23T03:55:19;7.80;;;7.20;;
41466;SDS011;27205;53.690;19.948;2022-07-23T04:00:22;7.10;;;6.50;;
41466;SDS011;27205;53.690;19.948;2022-07-23T04:10:29;5.50;;;5.10;;
41466;SDS011;27205;53.690;19.948;2022-07-23T04:15:32;5.80;;;5.30;;
41466;SDS011;27205;53.690;19.948;2022-07-23T04:20:36;6.20;;;5.70;;
41466;SDS011;27205;53.690;19.948;2022-07-23T04:25:42;6.20;;;5.60;;
41466;SDS011;27205;53.690;19.948;2022-07-23T04:30:46;5.30;;;4.90;;
41466;SDS011;27205;53.690;19.948;2022-07-23T04:35:49;6.20;;;5.70;;
41466;SDS011;27205;53.690;19.948;2022-07-23T04:40:52;6.50;;;5.90;;
41466;SDS011;27205;53.690;19.948;2022-07-23T04:45:56;7.40;;;6.20;;
41466;SDS011;27205;53.690;19.948;2022-07-23T04:50:59;7.30;;;6.30;;
41466;SDS011;27205;53.690;19.948;2022-07-23T04:56:03;6.00;;;5.50;;
41466;SDS011;27205;53.690;19.948;2022-07-23T05:01:07;7.50;;;6.70;;
41466;SDS011;27205;53.690;19.948;2022-07-23T05:06:10;7.40;;;6.80;;
41466;SDS011;27205;53.690;19.948;2022-07-23T05:16:17;8.20;;;7.60;;
41466;SDS011;27205;53.690;19.948;2022-07-23T05:26:24;8.00;;;7.20;;
41466;SDS011;27205;53.690;19.948;2022-07-23T05:36:31;7.00;;;6.40;;
41466;SDS011;27205;53.690;19.948;2022-07-23T05:41:35;7.40;;;6.80;;
41466;SDS011;27205;53.690;19.948;2022-07-23T05:46:38;7.60;;;7.00;;
41466;SDS011;27205;53.690;19.948;2022-07-23T05:51:42;7.90;;;7.10;;
41466;SDS011;27205;53.690;19.948;2022-07-23T05:56:48;7.80;;;7.10;;
41466;SDS011;27205;53.690;19.948;2022-07-23T06:01:53;6.90;;;6.30;;
41466;SDS011;27205;53.690;19.948;2022-07-23T06:06:56;7.00;;;6.40;;
41466;SDS011;27205;53.690;19.948;2022-07-23T06:12:00;7.40;;;6.50;;
41466;SDS011;27205;53.690;19.948;2022-07-23T06:17:03;6.40;;;6.00;;
41466;SDS011;27205;53.690;19.948;2022-07-23T06:22:06;6.60;;;6.10;;
41466;SDS011;27205;53.690;19.948;2022-07-23T06:27:09;6.30;;;5.80;;
41466;SDS011;27205;53.690;19.948;2022-07-23T06:32:13;6.10;;;5.60;;
41466;SDS011;27205;53.690;19.948;2022-07-23T06:37:16;6.90;;;6.10;;
41466;SDS011;27205;53.690;19.948;2022-07-23T06:42:20;6.20;;;5.60;;
41466;SDS011;27205;53.690;19.948;2022-07-23T06:47:23;6.20;;;5.60;;
41466;SDS011;27205;53.690;19.948;2022-07-23T06:52:27;6.70;;;6.00;;
41466;SDS011;27205;53.690;19.948;2022-07-23T06:57:33;6.50;;;5.90;;
41466;SDS011;27205;53.690;19.948;2022-07-23T07:02:37;7.90;;;7.00;;
41466;SDS011;27205;53.690;19.948;2022-07-23T07:07:42;6.40;;;5.90;;
41466;SDS011;27205;53.690;19.948;2022-07-23T07:12:46;6.70;;;5.90;;
41466;SDS011;27205;53.690;19.948;2022-07-23T07:17:50;6.00;;;5.00;;
41466;SDS011;27205;53.690;19.948;2022-07-23T07:22:54;6.30;;;5.30;;
41466;SDS011;27205;53.690;19.948;2022-07-23T07:27:58;5.10;;;4.70;;
41466;SDS011;27205;53.690;19.948;2022-07-23T07:33:01;5.10;;;4.60;;
41466;SDS011;27205;53.690;19.948;2022-07-23T07:38:05;5.10;;;4.70;;
41466;SDS011;27205;53.690;19.948;2022-07-23T07:43:08;4.80;;;4.50;;
41466;SDS011;27205;53.690;19.948;2022-07-23T07:48:12;4.80;;;4.30;;
41466;SDS011;27205;53.690;19.948;2022-07-23T07:53:16;4.30;;;4.00;;
41466;SDS011;27205;53.690;19.948;2022-07-23T07:58:20;6.90;;;4.50;;
41466;SDS011;27205;53.690;19.948;2022-07-23T08:03:24;5.50;;;4.40;;
41466;SDS011;27205;53.690;19.948;2022-07-23T08:08:27;4.20;;;3.80;;
41466;SDS011;27205;53.690;19.948;2022-07-23T08:13:31;3.90;;;3.70;;
41466;SDS011;27205;53.690;19.948;2022-07-23T08:18:34;3.60;;;3.30;;
41466;SDS011;27205;53.690;19.948;2022-07-23T08:23:38;4.40;;;4.00;;
41466;SDS011;27205;53.690;19.948;2022-07-23T08:28:41;4.50;;;3.90;;
41466;SDS011;27205;53.690;19.948;2022-07-23T08:33:45;4.10;;;3.70;;
41466;SDS011;27205;53.690;19.948;2022-07-23T08:38:48;3.80;;;3.60;;
41466;SDS011;27205;53.690;19.948;2022-07-23T08:43:52;3.70;;;3.40;;
41466;SDS011;27205;53.690;19.948;2022-07-23T08:48:56;5.00;;;3.60;;
41466;SDS011;27205;53.690;19.948;2022-07-23T08:54:00;4.30;;;3.50;;
41466;SDS011;27205;53.690;19.948;2022-07-23T08:59:05;4.40;;;2.90;;
41466;SDS011;27205;53.690;19.948;2022-07-23T09:04:08;4.50;;;3.80;;
41466;SDS011;27205;53.690;19.948;2022-07-23T09:09:19;4.40;;;3.50;;
41466;SDS011;27205;53.690;19.948;2022-07-23T09:14:43;3.70;;;3.40;;
41466;SDS011;27205;53.690;19.948;2022-07-23T09:19:51;4.30;;;3.50;;
41466;SDS011;27205;53.690;19.948;2022-07-23T09:25:04;3.20;;;2.90;;
41466;SDS011;27205;53.690;19.948;2022-07-23T09:30:13;3.10;;;2.80;;
41466;SDS011;27205;53.690;19.948;2022-07-23T09:35:17;2.50;;;2.30;;
41466;SDS011;27205;53.690;19.948;2022-07-23T09:40:20;3.00;;;2.40;;
41466;SDS011;27205;53.690;19.948;2022-07-23T09:45:24;2.50;;;2.30;;
41466;SDS011;27205;53.690;19.948;2022-07-23T09:50:29;2.20;;;2.10;;
41466;SDS011;27205;53.690;19.948;2022-07-23T09:55:33;2.40;;;2.20;;
41466;SDS011;27205;53.690;19.948;2022-07-23T10:00:39;2.80;;;2.60;;
41466;SDS011;27205;53.690;19.948;2022-07-23T10:05:43;2.30;;;2.10;;
41466;SDS011;27205;53.690;19.948;2022-07-23T10:10:48;2.80;;;2.60;;
41466;SDS011;27205;53.690;19.948;2022-07-23T10:15:53;1.90;;;1.80;;
41466;SDS011;27205;53.690;19.948;2022-07-23T10:20:57;2.60;;;2.20;;
41466;SDS011;27205;53.690;19.948;2022-07-23T10:42:21;3.20;;;2.30;;
41466;SDS011;27205;53.690;19.948;2022-07-23T10:47:36;3.70;;;2.90;;
41466;SDS011;27205;53.690;19.948;2022-07-23T10:58:47;3.10;;;2.50;;
41466;SDS011;27205;53.690;19.948;2022-07-23T11:03:56;2.80;;;2.60;;
41466;SDS011;27205;53.690;19.948;2022-07-23T11:15:00;2.70;;;2.50;;
41466;SDS011;27205;53.690;19.948;2022-07-23T11:35:40;2.10;;;2.00;;
41466;SDS011;27205;53.690;19.948;2022-07-23T11:40:51;2.70;;;2.50;;
41466;SDS011;27205;53.690;19.948;2022-07-23T11:45:59;3.70;;;2.40;;
41466;SDS011;27205;53.690;19.948;2022-07-23T11:51:03;3.60;;;2.40;;
41466;SDS011;27205;53.690;19.948;2022-07-23T11:56:07;2.60;;;2.40;;
41466;SDS011;27205;53.690;19.948;2022-07-23T12:01:12;2.30;;;2.20;;
41466;SDS011;27205;53.690;19.948;2022-07-23T12:06:16;3.10;;;2.90;;
41466;SDS011;27205;53.690;19.948;2022-07-23T12:11:19;2.70;;;2.50;;
41466;SDS011;27205;53.690;19.948;2022-07-23T12:16:24;2.60;;;2.40;;
41466;SDS011;27205;53.690;19.948;2022-07-23T12:21:28;3.40;;;2.90;;
41466;SDS011;27205;53.690;19.948;2022-07-23T12:26:35;3.00;;;2.80;;
41466;SDS011;27205;53.690;19.948;2022-07-23T12:31:53;3.30;;;2.70;;
41466;SDS011;27205;53.690;19.948;2022-07-23T12:36:57;3.00;;;2.70;;
41466;SDS011;27205;53.690;19.948;2022-07-23T12:42:01;3.10;;;2.80;;
41466;SDS011;27205;53.690;19.948;2022-07-23T12:47:04;5.90;;;2.70;;
41466;SDS011;27205;53.690;19.948;2022-07-23T12:52:17;2.20;;;2.10;;
41466;SDS011;27205;53.690;19.948;2022-07-23T12:57:44;3.30;;;3.00;;
41466;SDS011;27205;53.690;19.948;2022-07-23T13:02:51;2.90;;;2.70;;
41466;SDS011;27205;53.690;19.948;2022-07-23T13:07:55;3.40;;;3.10;;
41466;SDS011;27205;53.690;19.948;2022-07-23T13:12:58;3.90;;;3.60;;
41466;SDS011;27205;53.690;19.948;2022-07-23T13:18:01;3.80;;;3.60;;
41466;SDS011;27205;53.690;19.948;2022-07-23T13:23:06;4.40;;;4.10;;
41466;SDS011;27205;53.690;19.948;2022-07-23T13:28:11;4.10;;;3.80;;
41466;SDS011;27205;53.690;19.948;2022-07-23T13:33:16;4.50;;;4.10;;
41466;SDS011;27205;53.690;19.948;2022-07-23T13:38:24;4.50;;;4.20;;
41466;SDS011;27205;53.690;19.948;2022-07-23T13:43:28;4.60;;;4.30;;
41466;SDS011;27205;53.690;19.948;2022-07-23T13:48:38;4.40;;;4.10;;
41466;SDS011;27205;53.690;19.948;2022-07-23T13:53:42;4.90;;;4.60;;
41466;SDS011;27205;53.690;19.948;2022-07-23T13:58:47;4.30;;;4.00;;
41466;SDS011;27205;53.690;19.948;2022-07-23T14:08:54;5.50;;;5.00;;
41466;SDS011;27205;53.690;19.948;2022-07-23T14:19:02;6.40;;;5.90;;
41466;SDS011;27205;53.690;19.948;2022-07-23T14:24:06;5.40;;;4.90;;
41466;SDS011;27205;53.690;19.948;2022-07-23T14:29:10;5.80;;;5.50;;
41466;SDS011;27205;53.690;19.948;2022-07-23T14:34:14;6.50;;;6.10;;
41466;SDS011;27205;53.690;19.948;2022-07-23T14:39:17;7.30;;;6.70;;
41466;SDS011;27205;53.690;19.948;2022-07-23T14:44:21;7.10;;;6.60;;
41466;SDS011;27205;53.690;19.948;2022-07-23T14:49:25;6.80;;;6.40;;
41466;SDS011;27205;53.690;19.948;2022-07-23T14:54:29;6.90;;;6.40;;
41466;SDS011;27205;53.690;19.948;2022-07-23T14:59:33;6.80;;;6.30;;
41466;SDS011;27205;53.690;19.948;2022-07-23T15:04:39;7.80;;;7.20;;
41466;SDS011;27205;53.690;19.948;2022-07-23T15:09:42;9.20;;;8.60;;
41466;SDS011;27205;53.690;19.948;2022-07-23T15:14:46;10.00;;;9.40;;
41466;SDS011;27205;53.690;19.948;2022-07-23T15:19:49;9.80;;;9.10;;
41466;SDS011;27205;53.690;19.948;2022-07-23T15:24:52;9.20;;;8.50;;
41466;SDS011;27205;53.690;19.948;2022-07-23T15:29:56;6.80;;;6.30;;
41466;SDS011;27205;53.690;19.948;2022-07-23T15:34:59;6.20;;;5.80;;
41466;SDS011;27205;53.690;19.948;2022-07-23T15:40:05;6.80;;;6.40;;
41466;SDS011;27205;53.690;19.948;2022-07-23T15:45:15;6.50;;;6.10;;
41466;SDS011;27205;53.690;19.948;2022-07-23T15:50:19;6.20;;;5.80;;
41466;SDS011;27205;53.690;19.948;2022-07-23T15:55:23;6.40;;;6.00;;
41466;SDS011;27205;53.690;19.948;2022-07-23T16:00:27;6.10;;;5.70;;
41466;SDS011;27205;53.690;19.948;2022-07-23T16:05:31;5.90;;;5.50;;
41466;SDS011;27205;53.690;19.948;2022-07-23T16:10:35;5.50;;;5.10;;
41466;SDS011;27205;53.690;19.948;2022-07-23T16:15:39;5.70;;;5.30;;
41466;SDS011;27205;53.690;19.948;2022-07-23T16:20:44;6.00;;;5.60;;
41466;SDS011;27205;53.690;19.948;2022-07-23T16:25:47;5.00;;;4.70;;
41466;SDS011;27205;53.690;19.948;2022-07-23T16:30:51;5.20;;;4.80;;
41466;SDS011;27205;53.690;19.948;2022-07-23T16:35:55;5.20;;;4.70;;
41466;SDS011;27205;53.690;19.948;2022-07-23T16:40:58;4.90;;;4.60;;
41466;SDS011;27205;53.690;19.948;2022-07-23T16:46:02;4.50;;;4.30;;
41466;SDS011;27205;53.690;19.948;2022-07-23T16:51:06;5.20;;;4.80;;
41466;SDS011;27205;53.690;19.948;2022-07-23T16:56:10;5.50;;;5.10;;
41466;SDS011;27205;53.690;19.948;2022-07-23T17:01:13;4.30;;;4.00;;
41466;SDS011;27205;53.690;19.948;2022-07-23T17:06:17;4.30;;;4.00;;
41466;SDS011;27205;53.690;19.948;2022-07-23T17:11:20;4.00;;;3.80;;
41466;SDS011;27205;53.690;19.948;2022-07-23T17:16:23;3.70;;;3.50;;
41466;SDS011;27205;53.690;19.948;2022-07-23T17:21:27;3.90;;;3.60;;
41466;SDS011;27205;53.690;19.948;2022-07-23T17:26:30;4.60;;;4.30;;
41466;SDS011;27205;53.690;19.948;2022-07-23T17:31:36;4.70;;;4.40;;
41466;SDS011;27205;53.690;19.948;2022-07-23T17:36:40;4.50;;;4.20;;
41466;SDS011;27205;53.690;19.948;2022-07-23T17:41:44;4.90;;;4.60;;
41466;SDS011;27205;53.690;19.948;2022-07-23T17:46:50;5.70;;;5.30;;
41466;SDS011;27205;53.690;19.948;2022-07-23T17:51:53;5.10;;;4.80;;
41466;SDS011;27205;53.690;19.948;2022-07-23T17:56:57;5.20;;;4.80;;
41466;SDS011;27205;53.690;19.948;2022-07-23T18:02:08;5.80;;;5.20;;
41466;SDS011;27205;53.690;19.948;2022-07-23T18:07:12;5.50;;;5.00;;
41466;SDS011;27205;53.690;19.948;2022-07-23T18:12:15;5.40;;;5.00;;
41466;SDS011;27205;53.690;19.948;2022-07-23T18:17:19;5.20;;;4.90;;
41466;SDS011;27205;53.690;19.948;2022-07-23T18:22:22;5.60;;;5.20;;
41466;SDS011;27205;53.690;19.948;2022-07-23T18:27:26;5.70;;;5.30;;
41466;SDS011;27205;53.690;19.948;2022-07-23T18:32:32;8.80;;;6.10;;
41466;SDS011;27205;53.690;19.948;2022-07-23T18:37:37;7.60;;;7.10;;
41466;SDS011;27205;53.690;19.948;2022-07-23T18:42:40;8.20;;;7.50;;
41466;SDS011;27205;53.690;19.948;2022-07-23T18:47:44;11.50;;;10.70;;
41466;SDS011;27205;53.690;19.948;2022-07-23T18:52:48;7.60;;;6.90;;
41466;SDS011;27205;53.690;19.948;2022-07-23T18:57:52;6.90;;;6.40;;
41466;SDS011;27205;53.690;19.948;2022-07-23T19:02:58;6.90;;;6.40;;
41466;SDS011;27205;53.690;19.948;2022-07-23T19:08:08;6.90;;;6.40;;
41466;SDS011;27205;53.690;19.948;2022-07-23T19:13:12;7.20;;;6.80;;
41466;SDS011;27205;53.690;19.948;2022-07-23T19:18:16;7.40;;;6.90;;
41466;SDS011;27205;53.690;19.948;2022-07-23T19:23:20;7.90;;;7.30;;
41466;SDS011;27205;53.690;19.948;2022-07-23T19:28:23;6.60;;;6.20;;
41466;SDS011;27205;53.690;19.948;2022-07-23T19:33:26;7.20;;;6.60;;
41466;SDS011;27205;53.690;19.948;2022-07-23T19:38:30;8.20;;;7.70;;
41466;SDS011;27205;53.690;19.948;2022-07-23T19:43:33;7.70;;;7.20;;
41466;SDS011;27205;53.690;19.948;2022-07-23T19:48:37;8.10;;;7.60;;
41466;SDS011;27205;53.690;19.948;2022-07-23T19:53:41;8.00;;;7.50;;
41466;SDS011;27205;53.690;19.948;2022-07-23T19:58:45;7.90;;;7.40;;
41466;SDS011;27205;53.690;19.948;2022-07-23T20:08:51;8.70;;;8.00;;
41466;SDS011;27205;53.690;19.948;2022-07-23T20:13:57;8.30;;;7.80;;
41466;SDS011;27205;53.690;19.948;2022-07-23T20:19:00;7.30;;;6.80;;
41466;SDS011;27205;53.690;19.948;2022-07-23T20:24:04;5.30;;;4.90;;
41466;SDS011;27205;53.690;19.948;2022-07-23T20:29:13;5.20;;;3.60;;
41466;SDS011;27205;53.690;19.948;2022-07-23T20:34:19;2.80;;;2.50;;
41466;SDS011;27205;53.690;19.948;2022-07-23T20:39:22;2.40;;;2.20;;
41466;SDS011;27205;53.690;19.948;2022-07-23T20:44:26;2.60;;;2.30;;
41466;SDS011;27205;53.690;19.948;2022-07-23T20:49:29;2.00;;;1.90;;
41466;SDS011;27205;53.690;19.948;2022-07-23T20:54:32;1.80;;;1.60;;
41466;SDS011;27205;53.690;19.948;2022-07-23T20:59:36;2.60;;;2.40;;
41466;SDS011;27205;53.690;19.948;2022-07-23T21:09:48;3.30;;;2.60;;
41466;SDS011;27205;53.690;19.948;2022-07-23T21:14:52;4.30;;;3.60;;
41466;SDS011;27205;53.690;19.948;2022-07-23T21:19:55;5.30;;;2.80;;
41466;SDS011;27205;53.690;19.948;2022-07-23T21:24:59;4.40;;;3.50;;
41466;SDS011;27205;53.690;19.948;2022-07-23T21:36:17;4.00;;;3.40;;
41466;SDS011;27205;53.690;19.948;2022-07-23T21:41:20;3.90;;;3.30;;
41466;SDS011;27205;53.690;19.948;2022-07-23T21:46:24;3.70;;;3.20;;
41466;SDS011;27205;53.690;19.948;2022-07-23T21:51:28;4.10;;;3.30;;
41466;SDS011;27205;53.690;19.948;2022-07-23T21:56:32;3.00;;;2.50;;
41466;SDS011;27205;53.690;19.948;2022-07-23T22:01:36;5.10;;;3.20;;
41466;SDS011;27205;53.690;19.948;2022-07-23T22:06:40;3.30;;;3.00;;
41466;SDS011;27205;53.690;19.948;2022-07-23T22:11:44;4.60;;;3.80;;
41466;SDS011;27205;53.690;19.948;2022-07-23T22:16:48;4.00;;;3.10;;
41466;SDS011;27205;53.690;19.948;2022-07-23T22:21:51;3.00;;;2.10;;
41466;SDS011;27205;53.690;19.948;2022-07-23T22:26:55;4.60;;;3.50;;
41466;SDS011;27205;53.690;19.948;2022-07-23T22:31:58;5.60;;;3.30;;
41466;SDS011;27205;53.690;19.948;2022-07-23T22:37:02;5.90;;;3.60;;
41466;SDS011;27205;53.690;19.948;2022-07-23T22:42:05;8.90;;;3.10;;
41466;SDS011;27205;53.690;19.948;2022-07-23T22:47:09;4.30;;;3.30;;
41466;SDS011;27205;53.690;19.948;2022-07-23T22:52:12;3.30;;;2.90;;
41466;SDS011;27205;53.690;19.948;2022-07-23T22:57:17;3.00;;;2.50;;
41466;SDS011;27205;53.690;19.948;2022-07-23T23:02:21;2.80;;;2.50;;
41466;SDS011;27205;53.690;19.948;2022-07-23T23:07:24;2.70;;;2.40;;
41466;SDS011;27205;53.690;19.948;2022-07-23T23:12:28;2.30;;;2.10;;
41466;SDS011;27205;53.690;19.948;2022-07-23T23:17:31;3.50;;;3.20;;
41466;SDS011;27205;53.690;19.948;2022-07-23T23:22:34;4.50;;;2.50;;
41466;SDS011;27205;53.690;19.948;2022-07-23T23:27:38;3.50;;;2.60;;
41466;SDS011;27205;53.690;19.948;2022-07-23T23:32:41;2.20;;;2.00;;
41466;SDS011;27205;53.690;19.948;2022-07-23T23:37:44;2.30;;;2.10;;
41466;SDS011;27205;53.690;19.948;2022-07-23T23:42:48;2.70;;;1.90;;
41466;SDS011;27205;53.690;19.948;2022-07-23T23:47:51;2.20;;;1.90;;
41466;SDS011;27205;53.690;19.948;2022-07-23T23:52:54;2.10;;;1.60;;
41466;SDS011;27205;53.690;19.948;2022-07-23T23:57:59;3.70;;;2.10;;
